Hewins, Kansas
Current Conditions -  °F | °C
As of 2:15 AM on Saturday 25 Oct 2014 (Local Time) from KIDP Reporting Station
Haze Haze  
Wind Chill: 59°   Ceiling: Unl
Heat Index: 59°   Visibility: 5mi
Dew Point: 57°   Wind: 3mph
Humidity: 94%   Direction: 190°S
Pressure: 30.03"   Gusts: NA
Location:  37.1672°N, 96.399°W
Report Text: KIDP 250715Z AUTO 19003KT 5SM BR CLR 15/14 A3003 RMK AO2
Loading
Personal Weather Stations






























Interactive Weather Map
Tropical Storm Tracking
New forecast layout! Learn more

10-Day Weather Forecast

Advertisements
Track Severe Weather on mobile